FIN22P LPFR-EFHK
Flight info
| Callsign | FIN22P |
|---|---|
| Flight time | N/A |
| Altitude | 36000 |
| Route | ELVAR DCT BARDI DCT ZMR DCT NUBLO DCT RONSI DCT DELOG DCT PEXOD DCT DIDIG DCT USODA DCT ERCUT DCT DITAL UN873 BAZOS DCT BELDI DCT VEKIN DCT ADUTO N873 VICOT/N0445F370 DCT JUIST DCT LUTIR DCT RIKUM DCT RIRIP Y364 LAKUT |
| Aircraft | A320/M-SDE3FGHIRWY/LB1 |
Departure
| Time | 2026-05-07 13:11 |
|---|---|
| Airport | Faro - Gago Coutinho International Airport (LPFR) |
Arrival
| Time | N/A |
|---|---|
| Airport | Helsinki Vantaa Airport (EFHK) |
| Time | Latitude | Longitude | Altitude | Speed | Heading |
|---|---|---|---|---|---|
| 2026-05-07 13:11 | 37.05942 | -8.09358 | 3771 ft | 271 kts | 2° |
| 2026-05-07 13:11 | 37.07794 | -8.08872 | 4663 ft | 272 kts | 17° |
| 2026-05-07 13:12 | 37.09604 | -8.08174 | 5540 ft | 273 kts | 18° |
| 2026-05-07 13:12 | 37.11425 | -8.07435 | 6415 ft | 274 kts | 18° |
| 2026-05-07 13:12 | 37.13252 | -8.06691 | 7190 ft | 277 kts | 18° |
| 2026-05-07 13:12 | 37.15082 | -8.05954 | 7923 ft | 282 kts | 17° |
| 2026-05-07 13:13 | 37.16974 | -8.05199 | 8650 ft | 286 kts | 17° |
| 2026-05-07 13:13 | 37.18889 | -8.04442 | 9383 ft | 291 kts | 17° |
| 2026-05-07 13:13 | 37.20844 | -8.03674 | 10078 ft | 296 kts | 16° |
| 2026-05-07 13:13 | 37.22890 | -8.02872 | 10314 ft | 319 kts | 17° |
| 2026-05-07 13:14 | 37.25082 | -8.02009 | 10506 ft | 340 kts | 16° |
| 2026-05-07 13:14 | 37.27352 | -8.01113 | 10992 ft | 348 kts | 16° |
| 2026-05-07 13:14 | 37.29677 | -8.00193 | 11660 ft | 352 kts | 16° |
| 2026-05-07 13:14 | 37.32029 | -7.99261 | 12343 ft | 355 kts | 16° |
| 2026-05-07 13:15 | 37.34405 | -7.98324 | 13026 ft | 359 kts | 16° |
| 2026-05-07 13:15 | 37.36791 | -7.97385 | 13689 ft | 362 kts | 15° |
| 2026-05-07 13:15 | 37.39178 | -7.96444 | 14268 ft | 365 kts | 15° |
| 2026-05-07 13:15 | 37.41613 | -7.95482 | 14833 ft | 369 kts | 15° |
| 2026-05-07 13:16 | 37.44079 | -7.94508 | 15393 ft | 373 kts | 15° |
| 2026-05-07 13:16 | 37.46571 | -7.93524 | 15950 ft | 376 kts | 14° |
| 2026-05-07 13:16 | 37.49076 | -7.92532 | 16529 ft | 379 kts | 14° |
| 2026-05-07 13:16 | 37.50749 | -7.91870 | 16893 ft | 381 kts | 14° |
| 2026-05-07 13:17 | 37.53291 | -7.90862 | 17439 ft | 385 kts | 14° |
| 2026-05-07 13:17 | 37.55864 | -7.89843 | 17981 ft | 389 kts | 13° |
| 2026-05-07 13:17 | 37.59311 | -7.88475 | 18627 ft | 393 kts | 13° |
| 2026-05-07 13:17 | 37.61081 | -7.87771 | 18949 ft | 396 kts | 13° |
| 2026-05-07 13:18 | 37.63686 | -7.86736 | 19419 ft | 398 kts | 13° |
| 2026-05-07 13:18 | 37.66342 | -7.85682 | 19917 ft | 401 kts | 13° |
| 2026-05-07 13:18 | 37.69016 | -7.84619 | 20387 ft | 404 kts | 13° |
| 2026-05-07 13:18 | 37.71721 | -7.83541 | 20903 ft | 407 kts | 13° |
| 2026-05-07 13:19 | 37.74430 | -7.82458 | 21381 ft | 410 kts | 13° |
| 2026-05-07 13:19 | 37.77170 | -7.81363 | 21842 ft | 413 kts | 13° |
| 2026-05-07 13:19 | 37.79919 | -7.80266 | 22292 ft | 416 kts | 13° |
| 2026-05-07 13:19 | 37.82649 | -7.79175 | 22744 ft | 419 kts | 13° |
| 2026-05-07 13:20 | 37.85442 | -7.78057 | 23157 ft | 421 kts | 13° |
| 2026-05-07 13:20 | 37.88248 | -7.76934 | 23552 ft | 424 kts | 13° |
| 2026-05-07 13:20 | 37.91084 | -7.75799 | 23904 ft | 427 kts | 12° |
| 2026-05-07 13:20 | 37.93930 | -7.74660 | 24276 ft | 429 kts | 12° |
| 2026-05-07 13:21 | 37.96771 | -7.73520 | 24659 ft | 429 kts | 12° |
| 2026-05-07 13:21 | 37.99623 | -7.72373 | 25031 ft | 431 kts | 12° |
| 2026-05-07 13:21 | 38.02460 | -7.71234 | 25369 ft | 432 kts | 12° |
| 2026-05-07 13:21 | 38.05342 | -7.70079 | 25690 ft | 434 kts | 12° |
| 2026-05-07 13:22 | 38.08229 | -7.68919 | 26011 ft | 436 kts | 12° |
| 2026-05-07 13:22 | 38.11136 | -7.67748 | 26323 ft | 438 kts | 12° |
| 2026-05-07 13:22 | 38.14053 | -7.66571 | 26639 ft | 440 kts | 12° |
| 2026-05-07 13:22 | 38.16976 | -7.65388 | 26933 ft | 442 kts | 12° |
| 2026-05-07 13:23 | 38.19914 | -7.64200 | 27234 ft | 444 kts | 12° |
| 2026-05-07 13:23 | 38.22832 | -7.63019 | 27530 ft | 446 kts | 11° |
| 2026-05-07 13:23 | 38.25808 | -7.61813 | 27824 ft | 448 kts | 11° |
| 2026-05-07 13:23 | 38.28782 | -7.60610 | 28111 ft | 449 kts | 11° |
| 2026-05-07 13:24 | 38.31775 | -7.59400 | 28385 ft | 451 kts | 11° |
| 2026-05-07 13:24 | 38.34733 | -7.58200 | 28682 ft | 452 kts | 11° |
| 2026-05-07 13:24 | 38.37731 | -7.56980 | 28954 ft | 453 kts | 11° |
| 2026-05-07 13:24 | 38.40740 | -7.55753 | 29204 ft | 455 kts | 11° |
| 2026-05-07 13:25 | 38.43758 | -7.54522 | 29496 ft | 456 kts | 11° |
| 2026-05-07 13:25 | 38.46789 | -7.53286 | 29736 ft | 457 kts | 11° |
| 2026-05-07 13:25 | 38.49823 | -7.52052 | 29952 ft | 458 kts | 11° |
| 2026-05-07 13:25 | 38.52867 | -7.50812 | 30152 ft | 459 kts | 11° |
| 2026-05-07 13:26 | 38.55922 | -7.49566 | 30418 ft | 458 kts | 11° |
| 2026-05-07 13:26 | 38.58925 | -7.48338 | 30678 ft | 458 kts | 10° |
| 2026-05-07 13:26 | 38.61959 | -7.47098 | 30933 ft | 458 kts | 10° |
| 2026-05-07 13:26 | 38.64999 | -7.45854 | 31180 ft | 457 kts | 10° |
| 2026-05-07 13:27 | 38.68034 | -7.44606 | 31477 ft | 456 kts | 10° |
| 2026-05-07 13:27 | 38.71054 | -7.43365 | 31755 ft | 455 kts | 10° |
| 2026-05-07 13:27 | 38.74062 | -7.42131 | 32033 ft | 454 kts | 10° |
| 2026-05-07 13:27 | 38.77077 | -7.40893 | 32296 ft | 454 kts | 9° |
| 2026-05-07 13:28 | 38.80083 | -7.39658 | 32539 ft | 453 kts | 9° |
| 2026-05-07 13:28 | 38.83060 | -7.38436 | 32779 ft | 453 kts | 9° |
| 2026-05-07 13:28 | 38.86054 | -7.37202 | 33013 ft | 453 kts | 9° |
| 2026-05-07 13:28 | 38.89060 | -7.35960 | 33243 ft | 453 kts | 9° |
| 2026-05-07 13:29 | 38.92053 | -7.34720 | 33560 ft | 451 kts | 9° |
| 2026-05-07 13:29 | 38.95036 | -7.33484 | 33849 ft | 450 kts | 9° |
| 2026-05-07 13:29 | 38.98012 | -7.32255 | 34083 ft | 449 kts | 9° |
| 2026-05-07 13:29 | 39.00977 | -7.31031 | 34302 ft | 448 kts | 9° |
| 2026-05-07 13:30 | 39.03956 | -7.29803 | 34496 ft | 448 kts | 9° |
| 2026-05-07 13:30 | 39.06935 | -7.28576 | 34675 ft | 449 kts | 9° |
| 2026-05-07 13:30 | 39.09909 | -7.27351 | 34855 ft | 449 kts | 9° |
| 2026-05-07 13:30 | 39.12882 | -7.26120 | 35056 ft | 449 kts | 9° |
| 2026-05-07 13:31 | 39.15852 | -7.24882 | 35246 ft | 448 kts | 10° |
| 2026-05-07 13:31 | 39.18824 | -7.23638 | 35433 ft | 448 kts | 10° |
| 2026-05-07 13:31 | 39.21747 | -7.22353 | 35601 ft | 452 kts | 15° |
| 2026-05-07 13:31 | 39.24613 | -7.20587 | 35787 ft | 457 kts | 19° |
| 2026-05-07 13:32 | 39.30270 | -7.16836 | 35874 ft | 457 kts | 19° |
| 2026-05-07 13:32 | 39.35930 | -7.13085 | 35868 ft | 457 kts | 19° |
| 2026-05-07 13:33 | 39.41551 | -7.09348 | 35866 ft | 456 kts | 19° |
| 2026-05-07 13:33 | 39.47205 | -7.05594 | 35868 ft | 456 kts | 19° |
| 2026-05-07 13:34 | 39.55681 | -6.99955 | 35865 ft | 456 kts | 19° |
| 2026-05-07 13:35 | 39.61294 | -6.96192 | 35884 ft | 456 kts | 19° |
| 2026-05-07 13:35 | 39.66944 | -6.92413 | 35883 ft | 456 kts | 19° |
| 2026-05-07 13:36 | 39.72586 | -6.88634 | 35882 ft | 456 kts | 19° |
| 2026-05-07 13:36 | 39.78190 | -6.84877 | 35872 ft | 456 kts | 19° |
| 2026-05-07 13:37 | 39.83827 | -6.81084 | 35916 ft | 455 kts | 19° |
| 2026-05-07 13:37 | 39.89447 | -6.77287 | 35905 ft | 455 kts | 19° |
| 2026-05-07 13:38 | 39.95076 | -6.73486 | 35895 ft | 454 kts | 19° |
| 2026-05-07 13:38 | 40.00694 | -6.69686 | 35889 ft | 454 kts | 19° |
| 2026-05-07 13:39 | 40.06272 | -6.65905 | 35905 ft | 454 kts | 19° |
| 2026-05-07 13:39 | 40.11879 | -6.62101 | 35898 ft | 454 kts | 20° |
| 2026-05-07 13:40 | 40.17484 | -6.58289 | 35891 ft | 453 kts | 20° |
| 2026-05-07 13:40 | 40.23080 | -6.54467 | 35890 ft | 453 kts | 20° |
| 2026-05-07 13:41 | 40.28652 | -6.50661 | 35895 ft | 453 kts | 20° |
| 2026-05-07 13:41 | 40.34219 | -6.46852 | 35914 ft | 453 kts | 20° |
| 2026-05-07 13:42 | 40.39817 | -6.43015 | 35914 ft | 452 kts | 21° |
| 2026-05-07 13:42 | 40.45402 | -6.39168 | 35902 ft | 452 kts | 21° |
| 2026-05-07 13:43 | 40.50943 | -6.35344 | 35899 ft | 451 kts | 21° |
| 2026-05-07 13:43 | 40.56495 | -6.31520 | 35895 ft | 451 kts | 21° |
| 2026-05-07 13:44 | 40.62094 | -6.27675 | 35885 ft | 451 kts | 21° |
| 2026-05-07 13:44 | 40.67640 | -6.23848 | 35888 ft | 452 kts | 21° |
| 2026-05-07 13:45 | 40.73187 | -6.20005 | 35888 ft | 452 kts | 21° |
| 2026-05-07 13:45 | 40.78755 | -6.16144 | 35909 ft | 451 kts | 21° |
| 2026-05-07 13:46 | 40.84313 | -6.12284 | 35897 ft | 451 kts | 21° |
| 2026-05-07 13:46 | 40.89853 | -6.08430 | 35916 ft | 452 kts | 22° |
| 2026-05-07 13:47 | 40.95425 | -6.04555 | 35903 ft | 452 kts | 22° |
| 2026-05-07 13:47 | 41.00988 | -6.00675 | 35909 ft | 452 kts | 23° |
| 2026-05-07 13:48 | 41.06523 | -5.96802 | 35894 ft | 452 kts | 23° |
| 2026-05-07 13:48 | 41.12096 | -5.92888 | 35894 ft | 452 kts | 23° |
| 2026-05-07 13:49 | 41.17643 | -5.88996 | 35890 ft | 452 kts | 23° |
| 2026-05-07 13:49 | 41.23194 | -5.85089 | 35907 ft | 452 kts | 23° |
| 2026-05-07 13:50 | 41.28765 | -5.81172 | 35907 ft | 453 kts | 23° |
| 2026-05-07 13:50 | 41.34319 | -5.77251 | 35905 ft | 453 kts | 24° |
| 2026-05-07 13:51 | 41.39875 | -5.73307 | 35903 ft | 453 kts | 24° |
| 2026-05-07 13:51 | 41.45457 | -5.69347 | 35917 ft | 453 kts | 24° |
| 2026-05-07 13:52 | 41.50996 | -5.65413 | 35900 ft | 453 kts | 24° |
| 2026-05-07 13:52 | 41.56713 | -5.61885 | 35895 ft | 451 kts | 19° |
| 2026-05-07 13:53 | 41.62477 | -5.58645 | 35891 ft | 451 kts | 19° |
| 2026-05-07 13:53 | 41.68277 | -5.55387 | 35896 ft | 451 kts | 19° |
| 2026-05-07 13:54 | 41.74045 | -5.52133 | 35895 ft | 451 kts | 19° |
| 2026-05-07 13:54 | 41.79845 | -5.48846 | 35898 ft | 452 kts | 19° |
| 2026-05-07 13:55 | 41.85607 | -5.45573 | 35900 ft | 452 kts | 20° |
| 2026-05-07 13:55 | 41.91406 | -5.42270 | 35894 ft | 452 kts | 20° |
| 2026-05-07 13:56 | 41.97209 | -5.38959 | 35895 ft | 452 kts | 20° |
| 2026-05-07 13:56 | 42.02989 | -5.35656 | 35887 ft | 452 kts | 20° |
| 2026-05-07 13:57 | 42.08768 | -5.32352 | 35912 ft | 453 kts | 20° |
| 2026-05-07 13:57 | 42.14585 | -5.29018 | 35886 ft | 454 kts | 21° |
| 2026-05-07 13:58 | 42.20389 | -5.25685 | 35880 ft | 455 kts | 21° |
| 2026-05-07 13:58 | 42.26228 | -5.22329 | 35882 ft | 456 kts | 21° |
| 2026-05-07 13:59 | 42.32085 | -5.18947 | 35893 ft | 457 kts | 21° |
| 2026-05-07 13:59 | 42.37937 | -5.15562 | 35896 ft | 457 kts | 21° |
| 2026-05-07 14:00 | 42.43767 | -5.12191 | 35898 ft | 457 kts | 21° |
| 2026-05-07 14:00 | 42.49605 | -5.08807 | 35902 ft | 458 kts | 21° |
| 2026-05-07 14:01 | 42.55472 | -5.05394 | 35910 ft | 458 kts | 21° |
| 2026-05-07 14:01 | 42.61304 | -5.02000 | 35909 ft | 458 kts | 21° |
| 2026-05-07 14:02 | 42.67186 | -4.98561 | 35908 ft | 458 kts | 21° |
| 2026-05-07 14:02 | 42.73001 | -4.95151 | 35907 ft | 458 kts | 21° |
| 2026-05-07 14:03 | 42.78875 | -4.91713 | 35882 ft | 459 kts | 21° |
| 2026-05-07 14:03 | 42.84761 | -4.88252 | 35876 ft | 460 kts | 21° |
| 2026-05-07 14:04 | 42.90609 | -4.84807 | 35879 ft | 461 kts | 21° |
| 2026-05-07 14:04 | 42.96528 | -4.81325 | 35884 ft | 462 kts | 21° |
| 2026-05-07 14:05 | 43.01447 | -4.78419 | 35888 ft | 463 kts | 22° |
| 2026-05-07 14:05 | 43.08321 | -4.74341 | 35891 ft | 463 kts | 22° |
| 2026-05-07 14:06 | 43.13286 | -4.71392 | 35903 ft | 463 kts | 22° |
| 2026-05-07 14:06 | 43.19197 | -4.67883 | 35900 ft | 463 kts | 22° |
| 2026-05-07 14:07 | 43.25087 | -4.64378 | 35892 ft | 463 kts | 22° |
| 2026-05-07 14:07 | 43.31008 | -4.60836 | 35896 ft | 464 kts | 22° |
| 2026-05-07 14:08 | 43.36920 | -4.57289 | 35897 ft | 464 kts | 22° |
| 2026-05-07 14:08 | 43.42842 | -4.53735 | 35886 ft | 465 kts | 22° |
| 2026-05-07 14:09 | 43.48785 | -4.50158 | 35885 ft | 467 kts | 22° |
| 2026-05-07 14:09 | 43.54718 | -4.46586 | 35900 ft | 468 kts | 22° |
| 2026-05-07 14:10 | 43.60702 | -4.42971 | 35898 ft | 469 kts | 22° |
| 2026-05-07 14:10 | 43.66685 | -4.39355 | 35899 ft | 470 kts | 22° |
| 2026-05-07 14:11 | 43.72685 | -4.35725 | 35903 ft | 470 kts | 22° |
| 2026-05-07 14:11 | 43.78655 | -4.32096 | 35916 ft | 471 kts | 22° |
| 2026-05-07 14:12 | 43.84665 | -4.28427 | 35916 ft | 471 kts | 22° |
| 2026-05-07 14:12 | 43.90646 | -4.24779 | 35919 ft | 471 kts | 22° |
| 2026-05-07 14:13 | 43.96658 | -4.21098 | 35938 ft | 471 kts | 22° |
| 2026-05-07 14:13 | 44.02633 | -4.17435 | 35941 ft | 471 kts | 22° |
| 2026-05-07 14:14 | 44.08647 | -4.13744 | 35942 ft | 471 kts | 22° |
| 2026-05-07 14:14 | 44.14649 | -4.10053 | 35937 ft | 471 kts | 22° |
| 2026-05-07 14:15 | 44.20638 | -4.06350 | 35958 ft | 471 kts | 22° |
| 2026-05-07 14:15 | 44.26602 | -4.02654 | 35956 ft | 470 kts | 22° |
| 2026-05-07 14:16 | 44.32559 | -3.98868 | 35952 ft | 470 kts | 28° |
| 2026-05-07 14:16 | 44.38036 | -3.93825 | 35952 ft | 471 kts | 34° |
| 2026-05-07 14:17 | 44.43403 | -3.88642 | 35954 ft | 471 kts | 34° |
| 2026-05-07 14:17 | 44.48813 | -3.83415 | 35958 ft | 471 kts | 34° |
| 2026-05-07 14:18 | 44.54196 | -3.78208 | 35943 ft | 472 kts | 34° |
| 2026-05-07 14:18 | 44.59582 | -3.72986 | 35948 ft | 472 kts | 34° |
| 2026-05-07 14:19 | 44.64993 | -3.67719 | 35955 ft | 473 kts | 34° |
| 2026-05-07 14:19 | 44.70406 | -3.62428 | 35954 ft | 473 kts | 34° |
| 2026-05-07 14:20 | 44.75794 | -3.57165 | 35953 ft | 473 kts | 34° |
| 2026-05-07 14:20 | 44.81220 | -3.51863 | 35958 ft | 473 kts | 34° |
| 2026-05-07 14:21 | 44.86593 | -3.46588 | 35961 ft | 473 kts | 34° |
| 2026-05-07 14:21 | 44.92003 | -3.41250 | 35951 ft | 474 kts | 34° |
| 2026-05-07 14:22 | 44.97398 | -3.35912 | 35957 ft | 475 kts | 34° |
| 2026-05-07 14:22 | 45.02830 | -3.30532 | 35960 ft | 475 kts | 34° |
| 2026-05-07 14:23 | 45.08233 | -3.25198 | 35967 ft | 476 kts | 34° |
| 2026-05-07 14:23 | 45.13670 | -3.19806 | 35973 ft | 476 kts | 35° |
| 2026-05-07 14:24 | 45.19075 | -3.14431 | 35991 ft | 476 kts | 34° |
| 2026-05-07 14:24 | 45.24512 | -3.09014 | 35992 ft | 476 kts | 35° |
| 2026-05-07 14:25 | 45.29906 | -3.03612 | 35977 ft | 476 kts | 35° |
| 2026-05-07 14:25 | 45.35309 | -2.98158 | 35983 ft | 477 kts | 36° |
| 2026-05-07 14:26 | 45.40705 | -2.92577 | 35987 ft | 477 kts | 36° |
| 2026-05-07 14:26 | 45.46037 | -2.87021 | 35990 ft | 478 kts | 36° |
| 2026-05-07 14:27 | 45.51421 | -2.81436 | 35994 ft | 478 kts | 36° |
| 2026-05-07 14:27 | 45.56807 | -2.75846 | 36006 ft | 478 kts | 36° |
| 2026-05-07 14:28 | 45.62157 | -2.70274 | 35997 ft | 477 kts | 36° |
| 2026-05-07 14:28 | 45.67553 | -2.64654 | 35996 ft | 478 kts | 36° |
| 2026-05-07 14:29 | 45.72911 | -2.59063 | 35996 ft | 478 kts | 36° |
| 2026-05-07 14:29 | 45.78298 | -2.53429 | 36008 ft | 478 kts | 36° |
| 2026-05-07 14:30 | 45.83635 | -2.47823 | 36013 ft | 478 kts | 36° |
| 2026-05-07 14:30 | 45.88997 | -2.42160 | 36013 ft | 478 kts | 36° |
| 2026-05-07 14:31 | 45.94358 | -2.36496 | 36000 ft | 478 kts | 36° |
| 2026-05-07 14:31 | 45.99681 | -2.30861 | 36010 ft | 478 kts | 36° |
| 2026-05-07 14:32 | 46.05039 | -2.25179 | 36011 ft | 478 kts | 36° |
| 2026-05-07 14:32 | 46.10508 | -2.19738 | 36011 ft | 478 kts | 33° |
| 2026-05-07 14:33 | 46.16120 | -2.14583 | 36018 ft | 478 kts | 32° |
| 2026-05-07 14:33 | 46.21690 | -2.09461 | 36019 ft | 477 kts | 32° |
| 2026-05-07 14:34 | 46.27239 | -2.04200 | 36021 ft | 477 kts | 33° |
| 2026-05-07 14:34 | 46.32766 | -1.98877 | 36011 ft | 477 kts | 33° |
| 2026-05-07 14:35 | 46.38298 | -1.93568 | 36016 ft | 476 kts | 33° |
| 2026-05-07 14:35 | 46.43836 | -1.88275 | 36016 ft | 476 kts | 33° |
| 2026-05-07 14:36 | 46.49365 | -1.82978 | 36018 ft | 476 kts | 33° |
| 2026-05-07 14:36 | 46.54880 | -1.77673 | 36015 ft | 476 kts | 33° |
| 2026-05-07 14:37 | 46.60397 | -1.72349 | 36024 ft | 475 kts | 33° |
| 2026-05-07 14:37 | 46.68620 | -1.64388 | 36021 ft | 474 kts | 33° |
| 2026-05-07 14:38 | 46.74126 | -1.59049 | 36017 ft | 474 kts | 33° |
| 2026-05-07 14:38 | 46.79582 | -1.53743 | 36017 ft | 474 kts | 33° |
| 2026-05-07 14:39 | 46.85070 | -1.48397 | 36014 ft | 473 kts | 33° |
| 2026-05-07 14:39 | 46.90551 | -1.43037 | 36013 ft | 474 kts | 33° |
| 2026-05-07 14:40 | 46.96012 | -1.37605 | 36013 ft | 473 kts | 38° |
| 2026-05-07 14:40 | 47.00656 | -1.30882 | 36011 ft | 473 kts | 49° |
| 2026-05-07 14:41 | 47.05051 | -1.23685 | 36008 ft | 473 kts | 48° |
| 2026-05-07 14:41 | 47.09441 | -1.16502 | 36002 ft | 473 kts | 48° |
| 2026-05-07 14:42 | 47.13837 | -1.09307 | 36002 ft | 473 kts | 48° |
| 2026-05-07 14:42 | 47.18198 | -1.02145 | 36018 ft | 473 kts | 48° |
| 2026-05-07 14:43 | 47.22584 | -0.94907 | 36014 ft | 472 kts | 48° |
| 2026-05-07 14:43 | 47.26952 | -0.87675 | 36012 ft | 472 kts | 48° |
| 2026-05-07 14:44 | 47.31296 | -0.80472 | 36005 ft | 472 kts | 48° |
| 2026-05-07 14:44 | 47.35652 | -0.73217 | 36008 ft | 472 kts | 48° |
| 2026-05-07 14:45 | 47.40009 | -0.65955 | 36026 ft | 472 kts | 48° |
| 2026-05-07 14:45 | 47.44478 | -0.58870 | 36031 ft | 471 kts | 40° |
| 2026-05-07 14:46 | 47.49651 | -0.53043 | 36035 ft | 470 kts | 36° |
| 2026-05-07 14:46 | 47.54900 | -0.47261 | 36040 ft | 470 kts | 36° |
| 2026-05-07 14:47 | 47.60143 | -0.41454 | 36050 ft | 471 kts | 36° |
| 2026-05-07 14:47 | 47.65383 | -0.35633 | 36045 ft | 470 kts | 36° |
| 2026-05-07 14:48 | 47.70618 | -0.29815 | 36038 ft | 469 kts | 36° |
| 2026-05-07 14:48 | 47.75848 | -0.23987 | 36035 ft | 469 kts | 36° |
| 2026-05-07 14:49 | 47.81067 | -0.18144 | 36047 ft | 470 kts | 36° |
| 2026-05-07 14:49 | 47.86258 | -0.12322 | 36037 ft | 469 kts | 36° |
| 2026-05-07 14:50 | 47.91461 | -0.06480 | 36027 ft | 468 kts | 36° |
| 2026-05-07 14:50 | 47.96659 | -0.00628 | 36019 ft | 468 kts | 36° |
| 2026-05-07 14:51 | 48.00979 | 0.04248 | 36030 ft | 467 kts | 36° |
| 2026-05-07 14:51 | 48.06163 | 0.10116 | 36041 ft | 467 kts | 36° |
| 2026-05-07 14:52 | 48.11352 | 0.16009 | 36039 ft | 467 kts | 36° |
| 2026-05-07 14:52 | 48.16496 | 0.21852 | 36031 ft | 466 kts | 36° |
| 2026-05-07 14:53 | 48.21660 | 0.27741 | 36026 ft | 466 kts | 36° |
| 2026-05-07 14:53 | 48.26818 | 0.33649 | 36034 ft | 466 kts | 36° |
| 2026-05-07 14:54 | 48.31977 | 0.39566 | 36035 ft | 466 kts | 37° |
| 2026-05-07 14:54 | 48.37128 | 0.45496 | 36031 ft | 466 kts | 36° |
| 2026-05-07 14:55 | 48.42244 | 0.51397 | 36033 ft | 466 kts | 36° |
| 2026-05-07 14:55 | 48.47397 | 0.57342 | 36048 ft | 466 kts | 36° |
| 2026-05-07 14:56 | 48.52535 | 0.63294 | 36045 ft | 465 kts | 37° |
| 2026-05-07 14:56 | 48.57667 | 0.69255 | 36046 ft | 465 kts | 37° |
| 2026-05-07 14:57 | 48.62786 | 0.75231 | 36046 ft | 465 kts | 37° |
| 2026-05-07 14:57 | 48.67904 | 0.81205 | 36050 ft | 465 kts | 37° |
| 2026-05-07 14:58 | 48.73020 | 0.87200 | 36042 ft | 464 kts | 37° |
| 2026-05-07 14:58 | 48.78114 | 0.93148 | 36046 ft | 464 kts | 36° |
| 2026-05-07 14:59 | 48.83275 | 0.99065 | 36045 ft | 464 kts | 36° |
| 2026-05-07 14:59 | 48.88431 | 1.04971 | 36048 ft | 464 kts | 36° |
| 2026-05-07 15:00 | 48.93577 | 1.10919 | 36044 ft | 464 kts | 36° |
| 2026-05-07 15:00 | 48.98679 | 1.16848 | 36045 ft | 464 kts | 36° |
| 2026-05-07 15:01 | 49.03760 | 1.22923 | 36042 ft | 464 kts | 42° |
| 2026-05-07 15:01 | 49.08457 | 1.29698 | 36060 ft | 464 kts | 43° |
| 2026-05-07 15:02 | 49.13147 | 1.36463 | 36048 ft | 464 kts | 42° |
| 2026-05-07 15:02 | 49.17844 | 1.43239 | 36053 ft | 464 kts | 42° |
| 2026-05-07 15:03 | 49.22502 | 1.49988 | 36051 ft | 464 kts | 43° |
| 2026-05-07 15:03 | 49.27178 | 1.56812 | 36051 ft | 464 kts | 43° |
| 2026-05-07 15:04 | 49.31865 | 1.63638 | 36064 ft | 464 kts | 43° |
| 2026-05-07 15:04 | 49.36540 | 1.70466 | 36067 ft | 464 kts | 43° |
| 2026-05-07 15:05 | 49.41210 | 1.77316 | 36064 ft | 464 kts | 43° |
| 2026-05-07 15:05 | 49.45878 | 1.84175 | 36064 ft | 464 kts | 43° |
| 2026-05-07 15:06 | 49.50520 | 1.91020 | 36060 ft | 464 kts | 43° |
| 2026-05-07 15:06 | 49.55190 | 1.97912 | 36071 ft | 464 kts | 43° |
| 2026-05-07 15:07 | 49.59854 | 2.04821 | 36069 ft | 465 kts | 43° |
| 2026-05-07 15:07 | 49.64473 | 2.11701 | 36073 ft | 465 kts | 43° |
| 2026-05-07 15:08 | 49.69126 | 2.18650 | 36076 ft | 465 kts | 43° |
| 2026-05-07 15:08 | 49.73777 | 2.25596 | 36084 ft | 465 kts | 43° |
| 2026-05-07 15:09 | 49.78424 | 2.32561 | 36088 ft | 465 kts | 43° |
| 2026-05-07 15:09 | 49.83075 | 2.39542 | 36084 ft | 465 kts | 43° |
| 2026-05-07 15:10 | 49.87717 | 2.46547 | 36087 ft | 465 kts | 43° |
| 2026-05-07 15:10 | 49.92323 | 2.53519 | 36071 ft | 465 kts | 43° |
| 2026-05-07 15:11 | 49.96952 | 2.60555 | 36076 ft | 465 kts | 43° |
| 2026-05-07 15:11 | 50.01573 | 2.67597 | 36073 ft | 465 kts | 43° |
| 2026-05-07 15:12 | 50.06197 | 2.74651 | 36063 ft | 465 kts | 43° |
| 2026-05-07 15:12 | 50.10819 | 2.81709 | 36081 ft | 465 kts | 43° |
| 2026-05-07 15:13 | 50.15401 | 2.88737 | 36082 ft | 464 kts | 43° |
| 2026-05-07 15:13 | 50.20002 | 2.95824 | 36089 ft | 464 kts | 43° |
| 2026-05-07 15:14 | 50.24598 | 3.02924 | 36089 ft | 464 kts | 43° |
| 2026-05-07 15:14 | 50.29187 | 3.10023 | 36089 ft | 464 kts | 43° |
| 2026-05-07 15:15 | 50.33773 | 3.17134 | 36081 ft | 464 kts | 44° |
| 2026-05-07 15:15 | 50.38327 | 3.24213 | 36088 ft | 464 kts | 41° |
| 2026-05-07 15:16 | 50.43580 | 3.29963 | 36091 ft | 459 kts | 24° |
| 2026-05-07 15:16 | 50.49313 | 3.34419 | 36089 ft | 459 kts | 25° |
| 2026-05-07 15:17 | 50.55035 | 3.38776 | 36078 ft | 459 kts | 22° |
| 2026-05-07 15:17 | 50.60900 | 3.42776 | 36094 ft | 458 kts | 21° |
| 2026-05-07 15:18 | 50.66784 | 3.46686 | 36084 ft | 458 kts | 21° |
| 2026-05-07 15:18 | 50.72640 | 3.50689 | 36087 ft | 459 kts | 22° |
| 2026-05-07 15:19 | 50.78489 | 3.54765 | 36091 ft | 459 kts | 22° |
| 2026-05-07 15:19 | 50.84333 | 3.58853 | 36096 ft | 459 kts | 22° |
| 2026-05-07 15:20 | 50.90152 | 3.62921 | 36095 ft | 459 kts | 22° |
| 2026-05-07 15:20 | 50.95990 | 3.67036 | 36096 ft | 459 kts | 22° |
| 2026-05-07 15:21 | 51.01817 | 3.71227 | 36088 ft | 459 kts | 23° |
| 2026-05-07 15:21 | 51.07630 | 3.75434 | 36091 ft | 459 kts | 23° |
| 2026-05-07 15:22 | 51.13417 | 3.79623 | 36080 ft | 459 kts | 23° |
| 2026-05-07 15:22 | 51.19228 | 3.83833 | 36085 ft | 459 kts | 23° |
| 2026-05-07 15:23 | 51.25036 | 3.88065 | 36084 ft | 458 kts | 23° |
| 2026-05-07 15:23 | 51.30837 | 3.92298 | 36088 ft | 458 kts | 23° |
| 2026-05-07 15:24 | 51.36636 | 3.96545 | 36076 ft | 458 kts | 23° |
| 2026-05-07 15:24 | 51.42394 | 4.00776 | 36072 ft | 458 kts | 23° |
| 2026-05-07 15:25 | 51.48113 | 4.05295 | 36071 ft | 459 kts | 32° |
| 2026-05-07 15:25 | 51.53173 | 4.11544 | 36075 ft | 459 kts | 38° |
| 2026-05-07 15:26 | 51.58142 | 4.17998 | 36073 ft | 459 kts | 38° |
| 2026-05-07 15:26 | 51.63117 | 4.24469 | 36069 ft | 459 kts | 38° |
| 2026-05-07 15:27 | 51.68050 | 4.30906 | 36070 ft | 459 kts | 38° |
| 2026-05-07 15:27 | 51.73002 | 4.37401 | 36087 ft | 459 kts | 38° |
| 2026-05-07 15:28 | 51.77963 | 4.43926 | 36090 ft | 459 kts | 38° |
| 2026-05-07 15:28 | 51.82882 | 4.50412 | 36090 ft | 459 kts | 39° |
| 2026-05-07 15:29 | 51.87828 | 4.56957 | 36088 ft | 459 kts | 39° |
| 2026-05-07 15:29 | 51.92770 | 4.63516 | 36088 ft | 459 kts | 39° |
| 2026-05-07 15:30 | 51.97714 | 4.70089 | 36086 ft | 458 kts | 39° |
| 2026-05-07 15:30 | 52.02634 | 4.76659 | 36090 ft | 458 kts | 39° |
| 2026-05-07 15:31 | 52.07528 | 4.83222 | 36090 ft | 458 kts | 39° |
| 2026-05-07 15:31 | 52.12451 | 4.89826 | 36088 ft | 458 kts | 39° |
| 2026-05-07 15:32 | 52.17367 | 4.96431 | 36085 ft | 458 kts | 39° |
| 2026-05-07 15:32 | 52.22281 | 5.03058 | 36094 ft | 457 kts | 39° |
| 2026-05-07 15:33 | 52.27173 | 5.09681 | 36097 ft | 457 kts | 39° |
| 2026-05-07 15:33 | 52.32027 | 5.16288 | 36092 ft | 457 kts | 39° |